Time;durP1;ratioP1;P1;durP2;ratioP2;P2;SDS_P1;SDS_P2;PMS_P1;PMS_P2;Temp;Humidity;BMP_temperature;BMP_pressure;BME280_temperature;BME280_humidity;BME280_pressure;Samples;Min_cycle;Max_cycle;Signal;HPM_P1;HPM_P2
2022/05/08 00:00:07;;;;;;;22.67;4.88;;;7.70;99.90;;;;;;6185878;23;20324;-88
2022/05/08 00:02:34;;;;;;;19.90;4.53;;;7.70;99.90;;;;;;6160230;23;20043;-87
2022/05/08 00:05:00;;;;;;;19.92;4.72;;;7.60;99.90;;;;;;6186354;23;20024;-87
2022/05/08 00:07:26;;;;;;;17.98;4.32;;;7.60;99.90;;;;;;6185328;23;20021;-87
2022/05/08 00:09:51;;;;;;;21.92;4.60;;;7.50;99.90;;;;;;6160920;23;20314;-87
2022/05/08 00:12:18;;;;;;;19.75;4.90;;;7.50;99.90;;;;;;6184964;23;20330;-87
2022/05/08 00:14:44;;;;;;;28.50;4.65;;;7.50;99.90;;;;;;6158599;23;20508;-87
2022/05/08 00:17:14;;;;;;;24.50;4.70;;;7.50;99.90;;;;;;6186222;23;20020;-87
2022/05/08 00:19:41;;;;;;;25.30;5.50;;;7.40;99.90;;;;;;6185908;23;20017;-87
2022/05/08 00:22:06;;;;;;;16.10;5.15;;;7.40;99.90;;;;;;6159309;23;20071;-87
2022/05/08 00:24:35;;;;;;;23.88;4.75;;;7.40;99.90;;;;;;6160469;23;20017;-88
2022/05/08 00:27:00;;;;;;;19.35;3.90;;;7.30;99.90;;;;;;6185463;23;20100;-87
2022/05/08 00:29:26;;;;;;;19.60;4.10;;;7.30;99.90;;;;;;6187613;23;20045;-87
2022/05/08 00:31:52;;;;;;;27.58;5.78;;;7.30;99.90;;;;;;6159342;23;20013;-87
2022/05/08 00:34:17;;;;;;;20.00;5.32;;;7.30;99.90;;;;;;6185378;23;20446;-87
2022/05/08 00:36:43;;;;;;;20.85;4.03;;;7.20;99.90;;;;;;6186772;23;20021;-87
2022/05/08 00:39:08;;;;;;;21.75;4.32;;;7.20;99.90;;;;;;6186988;23;20025;-87
2022/05/08 00:41:34;;;;;;;22.30;5.05;;;7.10;99.90;;;;;;6159191;23;20021;-87
2022/05/08 00:44:00;;;;;;;20.38;4.75;;;7.10;99.90;;;;;;6160942;23;20024;-87
2022/05/08 00:46:27;;;;;;;19.15;4.97;;;7.10;99.90;;;;;;6166213;23;20017;-87
2022/05/08 00:48:53;;;;;;;20.83;4.60;;;7.10;99.90;;;;;;6190218;23;20055;-88
2022/05/08 00:51:19;;;;;;;19.13;4.82;;;7.00;99.90;;;;;;6189118;23;20020;-87
2022/05/08 00:53:51;;;;;;;21.25;5.55;;;7.00;99.90;;;;;;6159151;23;20071;-87
2022/05/08 00:56:18;;;;;;;19.35;4.90;;;7.00;99.90;;;;;;6184805;23;20145;-87
2022/05/08 00:58:47;;;;;;;18.98;4.35;;;6.90;99.90;;;;;;6185640;23;20013;-87
2022/05/08 01:01:13;;;;;;;24.23;5.03;;;6.90;99.90;;;;;;6185698;23;20024;-87
2022/05/08 01:03:40;;;;;;;19.33;5.20;;;6.90;99.90;;;;;;6184687;23;20017;-87
2022/05/08 01:06:17;;;;;;;22.92;5.95;;;6.80;99.90;;;;;;6159310;23;20025;-88
2022/05/08 01:08:47;;;;;;;20.25;4.68;;;6.80;99.90;;;;;;6185343;23;20374;-87
2022/05/08 01:11:13;;;;;;;20.30;4.55;;;6.80;99.90;;;;;;6159325;23;20049;-88
2022/05/08 01:13:40;;;;;;;21.95;4.68;;;6.80;99.90;;;;;;6185874;23;20025;-87
2022/05/08 01:16:11;;;;;;;21.55;4.57;;;6.70;99.90;;;;;;6184634;23;20476;-87
2022/05/08 01:18:37;;;;;;;19.60;4.75;;;6.70;99.90;;;;;;6159179;23;20017;-88
2022/05/08 01:21:03;;;;;;;22.13;4.60;;;6.70;99.90;;;;;;6158522;23;20049;-87
2022/05/08 01:23:29;;;;;;;17.02;4.28;;;6.60;99.90;;;;;;6159651;23;20017;-87
2022/05/08 01:25:56;;;;;;;18.00;4.65;;;6.60;99.90;;;;;;6158588;23;20377;-87
2022/05/08 01:28:23;;;;;;;14.85;4.30;;;6.60;99.90;;;;;;6185752;23;20017;-87
2022/05/08 01:30:51;;;;;;;22.65;4.80;;;6.60;99.90;;;;;;6157330;23;20354;-87
2022/05/08 01:33:17;;;;;;;19.70;4.35;;;6.60;99.90;;;;;;6185294;23;20017;-87
2022/05/08 01:35:43;;;;;;;17.60;4.35;;;6.50;99.90;;;;;;6185082;23;20446;-87
2022/05/08 01:38:11;;;;;;;17.25;4.53;;;6.50;99.90;;;;;;6184613;23;20024;-87
2022/05/08 01:40:36;;;;;;;19.50;4.60;;;6.50;99.90;;;;;;6185189;23;20025;-87
2022/05/08 01:43:03;;;;;;;17.83;5.13;;;6.50;99.90;;;;;;6158145;23;20395;-87
2022/05/08 01:45:28;;;;;;;18.08;5.32;;;6.50;99.90;;;;;;6157733;23;20327;-88
2022/05/08 01:50:39;;;;;;;19.67;5.57;;;6.40;99.90;;;;;;6158525;23;20060;-87
2022/05/08 01:53:05;;;;;;;25.67;5.43;;;6.40;99.90;;;;;;6157845;23;20024;-87
2022/05/08 01:55:31;;;;;;;20.67;5.78;;;6.30;99.90;;;;;;6159933;23;20017;-87
2022/05/08 01:57:58;;;;;;;19.95;4.95;;;6.30;99.90;;;;;;6158426;23;20040;-87
2022/05/08 02:00:24;;;;;;;22.17;5.07;;;6.30;99.90;;;;;;6184251;23;20013;-87
2022/05/08 02:02:51;;;;;;;16.33;4.57;;;6.20;99.90;;;;;;6184188;23;20024;-87
2022/05/08 02:05:21;;;;;;;18.80;4.82;;;6.20;99.90;;;;;;6184473;23;20524;-88
2022/05/08 02:07:48;;;;;;;19.92;4.63;;;6.20;99.90;;;;;;6184832;23;20076;-88
2022/05/08 02:10:15;;;;;;;17.73;4.75;;;6.10;99.90;;;;;;6184755;23;20374;-87
2022/05/08 02:12:41;;;;;;;17.90;4.77;;;6.10;99.90;;;;;;6184293;23;20017;-88
2022/05/08 02:15:11;;;;;;;21.73;4.95;;;6.00;99.90;;;;;;6186160;23;20472;-87
2022/05/08 02:17:37;;;;;;;18.65;4.85;;;6.00;99.90;;;;;;6158820;23;20028;-88
2022/05/08 02:20:06;;;;;;;19.08;4.85;;;5.90;99.90;;;;;;6183702;23;20020;-88
2022/05/08 02:22:32;;;;;;;16.60;4.50;;;5.80;99.90;;;;;;6185144;23;20017;-87
2022/05/08 02:24:58;;;;;;;20.55;4.78;;;5.70;99.90;;;;;;6184562;23;20040;-87
2022/05/08 02:27:23;;;;;;;17.73;4.70;;;5.70;99.90;;;;;;6158145;23;20013;-87
2022/05/08 02:29:50;;;;;;;19.30;4.57;;;5.60;99.90;;;;;;6185110;23;20024;-88
2022/05/08 02:32:16;;;;;;;19.13;4.60;;;5.60;99.90;;;;;;6159362;23;20497;-88
2022/05/08 02:34:42;;;;;;;21.25;4.68;;;5.50;99.90;;;;;;6157763;23;20036;-88
2022/05/08 02:37:08;;;;;;;21.97;5.97;;;5.40;99.90;;;;;;6186053;23;20381;-88
2022/05/08 02:39:33;;;;;;;19.45;5.82;;;5.40;99.90;;;;;;6186175;23;20028;-87
2022/05/08 02:41:59;;;;;;;18.55;4.90;;;5.30;99.90;;;;;;6184746;23;20029;-87
2022/05/08 02:44:25;;;;;;;23.10;5.00;;;5.30;99.90;;;;;;6158951;23;20017;-87
2022/05/08 02:46:50;;;;;;;20.53;4.93;;;5.20;99.90;;;;;;6184559;23;20475;-88
2022/05/08 02:49:16;;;;;;;16.80;4.83;;;5.20;99.90;;;;;;6185160;23;20009;-88
2022/05/08 02:51:41;;;;;;;16.53;4.73;;;5.10;99.90;;;;;;6159037;23;20033;-87
2022/05/08 02:54:07;;;;;;;15.70;4.73;;;5.10;99.90;;;;;;6186542;23;20088;-87
2022/05/08 02:59:17;;;;;;;18.25;5.30;;;5.30;99.90;;;;;;6161432;23;20064;-88
2022/05/08 03:01:43;;;;;;;15.60;4.90;;;5.00;99.90;;;;;;6183996;23;20025;-87
2022/05/08 03:04:08;;;;;;;18.43;5.00;;;4.90;99.90;;;;;;6186562;23;20448;-87
2022/05/08 03:06:34;;;;;;;17.05;5.05;;;4.90;99.90;;;;;;6187185;23;20194;-87
2022/05/08 03:09:00;;;;;;;16.00;4.67;;;4.90;99.90;;;;;;6186384;23;20342;-88
2022/05/08 03:11:25;;;;;;;22.57;5.50;;;4.90;99.90;;;;;;6161579;23;20025;-88
2022/05/08 03:13:52;;;;;;;18.40;6.13;;;4.80;99.90;;;;;;6186242;23;20405;-88
2022/05/08 03:16:17;;;;;;;14.13;4.37;;;4.80;99.90;;;;;;6186246;23;20100;-88
2022/05/08 03:18:45;;;;;;;16.77;5.07;;;4.80;99.90;;;;;;6161609;23;20028;-88
2022/05/08 03:21:12;;;;;;;19.93;5.17;;;4.70;99.90;;;;;;6187095;23;20455;-88
2022/05/08 03:23:39;;;;;;;21.17;5.60;;;4.70;99.90;;;;;;6161011;23;20433;-88
2022/05/08 03:26:05;;;;;;;16.20;4.90;;;4.60;99.90;;;;;;6187369;23;20345;-88
2022/05/08 03:28:31;;;;;;;18.50;4.77;;;4.60;99.90;;;;;;6187561;23;20013;-88
2022/05/08 03:30:59;;;;;;;17.70;4.73;;;4.50;99.90;;;;;;6186071;23;20100;-88
2022/05/08 03:33:25;;;;;;;17.50;4.83;;;4.50;99.90;;;;;;6160114;23;20013;-89
2022/05/08 03:35:51;;;;;;;20.60;4.93;;;4.40;99.90;;;;;;6186592;23;20017;-88
2022/05/08 03:38:18;;;;;;;20.33;5.10;;;4.50;99.90;;;;;;6160157;23;20396;-87
2022/05/08 03:40:44;;;;;;;20.63;5.37;;;4.40;99.90;;;;;;6163337;23;20143;-88
2022/05/08 03:43:10;;;;;;;24.17;6.07;;;4.40;99.90;;;;;;6165334;23;20021;-88
2022/05/08 03:45:35;;;;;;;18.93;5.03;;;4.40;99.90;;;;;;6187850;23;20032;-88
2022/05/08 03:48:02;;;;;;;14.63;5.00;;;4.30;99.90;;;;;;6187316;23;20013;-88
2022/05/08 03:50:28;;;;;;;27.00;6.50;;;4.30;99.90;;;;;;6161366;23;20024;-88
2022/05/08 03:52:54;;;;;;;16.60;4.77;;;4.30;99.90;;;;;;6158393;23;20021;-88
2022/05/08 03:55:19;;;;;;;23.67;5.87;;;4.30;99.90;;;;;;6186731;23;20017;-87
2022/05/08 03:57:45;;;;;;;15.50;4.70;;;4.30;99.90;;;;;;6159959;23;20021;-88
2022/05/08 04:00:13;;;;;;;21.03;5.60;;;4.30;99.90;;;;;;6186128;23;20088;-87
2022/05/08 04:02:39;;;;;;;16.80;5.30;;;4.20;99.90;;;;;;6158974;23;20027;-88
2022/05/08 04:05:05;;;;;;;16.47;5.30;;;4.20;99.90;;;;;;6158116;23;20108;-88
2022/05/08 04:07:31;;;;;;;20.93;5.70;;;4.20;99.90;;;;;;6185885;23;20021;-88
2022/05/08 04:09:57;;;;;;;21.27;5.87;;;4.20;99.90;;;;;;6159271;23;20017;-88
2022/05/08 04:12:23;;;;;;;21.03;5.63;;;4.20;99.90;;;;;;6185851;23;20103;-88
2022/05/08 04:14:49;;;;;;;19.37;5.40;;;4.20;99.90;;;;;;6185951;23;20016;-88
2022/05/08 04:17:16;;;;;;;16.07;6.10;;;4.30;99.90;;;;;;6160187;23;20013;-88
2022/05/08 04:19:42;;;;;;;14.87;5.13;;;4.30;99.90;;;;;;6159172;23;20013;-88
2022/05/08 04:24:52;;;;;;;14.70;4.85;;;4.40;99.90;;;;;;6159594;23;20029;-87
2022/05/08 04:27:18;;;;;;;21.57;5.40;;;4.40;99.90;;;;;;6185733;23;20398;-88
2022/05/08 04:29:43;;;;;;;18.80;5.67;;;4.40;99.90;;;;;;6186190;23;20009;-87
2022/05/08 04:32:09;;;;;;;18.20;5.53;;;4.50;99.90;;;;;;6160373;23;20437;-88
2022/05/08 04:34:34;;;;;;;20.73;5.83;;;4.60;99.90;;;;;;6184715;23;20084;-87
2022/05/08 04:37:00;;;;;;;20.67;6.30;;;4.70;99.90;;;;;;6185700;23;20020;-87
2022/05/08 04:39:26;;;;;;;20.13;6.07;;;4.80;99.90;;;;;;6160075;23;20025;-88
2022/05/08 04:41:52;;;;;;;21.47;6.10;;;4.80;99.90;;;;;;6158035;23;20056;-88
2022/05/08 04:44:18;;;;;;;20.03;7.13;;;4.90;99.90;;;;;;6159382;23;20025;-88
2022/05/08 04:46:43;;;;;;;19.50;6.27;;;5.00;99.90;;;;;;6185388;23;20412;-88
2022/05/08 04:49:10;;;;;;;19.13;6.30;;;5.00;99.90;;;;;;6185413;23;20052;-88
2022/05/08 04:51:36;;;;;;;24.80;5.97;;;5.10;99.90;;;;;;6186951;23;20342;-87
2022/05/08 04:54:02;;;;;;;21.07;6.00;;;5.20;99.90;;;;;;6186125;23;20028;-87
2022/05/08 04:56:30;;;;;;;18.40;6.60;;;5.30;99.90;;;;;;6186116;23;20330;-87
2022/05/08 04:58:55;;;;;;;25.30;6.50;;;5.40;99.90;;;;;;6158864;23;20315;-88
2022/05/08 05:01:21;;;;;;;25.60;6.70;;;5.50;99.90;;;;;;6158616;23;20070;-88
2022/05/08 05:03:47;;;;;;;16.23;5.97;;;5.50;99.90;;;;;;6159048;23;20023;-88
2022/05/08 05:06:13;;;;;;;24.23;6.53;;;5.60;99.90;;;;;;6185824;23;20024;-87
2022/05/08 05:08:39;;;;;;;22.67;7.27;;;5.70;99.90;;;;;;6157780;23;20349;-87
2022/05/08 05:11:08;;;;;;;21.70;6.87;;;5.80;99.90;;;;;;6159140;23;20346;-87
2022/05/08 05:13:35;;;;;;;23.27;6.40;;;5.90;99.90;;;;;;6185812;23;20013;-87
2022/05/08 05:16:00;;;;;;;21.60;6.43;;;6.00;99.90;;;;;;6185821;23;20013;-87
2022/05/08 05:18:26;;;;;;;18.03;5.73;;;6.10;99.90;;;;;;6159112;23;20095;-87
2022/05/08 05:20:52;;;;;;;24.97;6.20;;;6.20;99.90;;;;;;6184947;23;20068;-88
2022/05/08 05:23:17;;;;;;;22.85;6.05;;;6.20;99.90;;;;;;6160253;23;20014;-87
2022/05/08 05:25:43;;;;;;;22.13;5.53;;;6.30;99.90;;;;;;6160233;23;20021;-87
2022/05/08 05:28:09;;;;;;;17.67;5.20;;;6.40;99.90;;;;;;6186633;23;20028;-87
2022/05/08 05:30:35;;;;;;;18.50;5.45;;;6.50;99.90;;;;;;6184942;23;20019;-87
2022/05/08 05:33:00;;;;;;;21.48;5.22;;;6.60;99.90;;;;;;6185128;23;20441;-87
2022/05/08 05:35:26;;;;;;;18.70;6.30;;;6.60;99.90;;;;;;6185845;23;20075;-86
2022/05/08 05:37:51;;;;;;;18.67;6.10;;;6.70;99.90;;;;;;6157594;23;20397;-87
2022/05/08 05:40:17;;;;;;;17.77;5.10;;;6.80;99.90;;;;;;6158710;23;20075;-87
2022/05/08 05:42:42;;;;;;;18.15;5.45;;;6.90;99.90;;;;;;6159382;23;20107;-87
2022/05/08 05:45:08;;;;;;;19.25;4.70;;;6.90;99.90;;;;;;6159051;23;20024;-87
2022/05/08 05:47:49;;;;;;;18.50;4.82;;;7.00;99.90;;;;;;6159352;23;20028;-87
2022/05/08 05:50:15;;;;;;;17.48;4.72;;;7.10;99.90;;;;;;6185972;23;20020;-86
2022/05/08 05:52:40;;;;;;;15.43;4.32;;;7.20;99.90;;;;;;6158140;23;20075;-87
2022/05/08 05:55:07;;;;;;;11.98;4.05;;;7.30;99.90;;;;;;6159375;23;20341;-86
2022/05/08 05:57:36;;;;;;;16.73;4.70;;;7.40;99.90;;;;;;6184317;23;20021;-87
2022/05/08 06:00:09;;;;;;;15.10;3.95;;;7.50;99.90;;;;;;6184738;23;20017;-85
2022/05/08 06:02:34;;;;;;;11.30;3.70;;;7.60;99.90;;;;;;6185262;23;20135;-87
2022/05/08 06:05:00;;;;;;;14.40;3.60;;;7.60;99.90;;;;;;6184904;23;20434;-92
2022/05/08 06:07:25;;;;;;;16.70;3.90;;;7.70;99.90;;;;;;6161468;23;20021;-92
2022/05/08 06:09:51;;;;;;;14.57;3.90;;;8.30;99.90;;;;;;6187485;23;20012;-91
2022/05/08 06:12:17;;;;;;;14.23;4.10;;;7.90;99.90;;;;;;6158841;23;20025;-92
2022/05/08 06:14:42;;;;;;;14.90;4.05;;;8.00;99.90;;;;;;6160488;23;20013;-92
2022/05/08 06:17:08;;;;;;;14.33;4.47;;;8.00;99.90;;;;;;6186032;23;20051;-91
2022/05/08 06:19:34;;;;;;;14.27;4.40;;;8.10;99.90;;;;;;6158725;23;20342;-93
2022/05/08 06:22:00;;;;;;;17.83;4.70;;;8.20;99.90;;;;;;6159303;23;20054;-92
2022/05/08 06:24:25;;;;;;;17.93;3.97;;;8.20;99.90;;;;;;6160055;23;20010;-92
2022/05/08 06:26:51;;;;;;;10.83;3.83;;;8.30;99.90;;;;;;6188587;23;20513;-89
2022/05/08 06:29:17;;;;;;;12.98;3.45;;;8.40;99.90;;;;;;6164109;23;20079;-89
2022/05/08 06:31:43;;;;;;;14.45;3.70;;;8.40;99.90;;;;;;6187556;23;20092;-92
2022/05/08 06:34:08;;;;;;;13.65;3.50;;;8.50;99.90;;;;;;6161001;23;20016;-89
2022/05/08 06:36:34;;;;;;;14.93;3.38;;;8.60;99.90;;;;;;6173292;23;20044;-89
2022/05/08 06:39:00;;;;;;;14.32;3.47;;;8.70;99.90;;;;;;6193913;23;20010;-94
2022/05/08 06:41:27;;;;;;;13.95;3.50;;;8.90;99.90;;;;;;6158182;23;20384;-89
2022/05/08 06:43:53;;;;;;;12.40;3.50;;;9.10;99.90;;;;;;6157932;23;20063;-89
2022/05/08 06:46:19;;;;;;;10.68;3.08;;;9.20;99.90;;;;;;6185345;23;20021;-91
2022/05/08 06:48:46;;;;;;;12.15;2.97;;;9.30;99.90;;;;;;6188059;23;20024;-92
2022/05/08 06:51:14;;;;;;;11.30;3.10;;;9.50;99.90;;;;;;6158521;23;20039;-91
2022/05/08 06:53:42;;;;;;;11.30;3.03;;;9.60;99.90;;;;;;6156876;23;20020;-91
2022/05/08 06:56:08;;;;;;;11.48;2.50;;;9.70;99.90;;;;;;6162986;23;20092;-92
2022/05/08 07:01:34;;;;;;;9.77;2.70;;;9.70;99.90;;;;;;6163808;23;20013;-92
2022/05/08 07:01:34;;;;;;;11.75;2.63;;;9.80;99.90;;;;;;6156677;23;20032;-88
2022/05/08 07:04:00;;;;;;;14.18;3.20;;;9.80;99.90;;;;;;6161577;23;20025;-93
2022/05/08 07:06:26;;;;;;;12.00;2.90;;;9.80;99.90;;;;;;6185930;23;20023;-93
2022/05/08 07:08:51;;;;;;;10.57;2.65;;;9.90;99.90;;;;;;6185233;23;20390;-95
2022/05/08 07:11:17;;;;;;;10.02;2.65;;;10.10;99.90;;;;;;6185963;23;20087;-91
2022/05/08 07:13:43;;;;;;;10.25;2.63;;;10.20;99.90;;;;;;6158681;23;20021;-93
2022/05/08 07:16:08;;;;;;;13.55;2.88;;;10.40;99.90;;;;;;6185176;23;20088;-93
2022/05/08 07:18:34;;;;;;;10.13;2.60;;;10.50;99.90;;;;;;6156510;23;20024;-93
2022/05/08 07:20:59;;;;;;;9.88;2.95;;;10.60;99.90;;;;;;6183788;23;20021;-91
2022/05/08 07:23:25;;;;;;;11.88;2.53;;;10.60;99.90;;;;;;6185569;23;20337;-92
2022/05/08 07:25:51;;;;;;;10.27;2.42;;;10.70;99.90;;;;;;6184995;23;20028;-92
2022/05/08 07:28:17;;;;;;;10.02;2.63;;;11.20;99.90;;;;;;6184571;23;20719;-92
2022/05/08 07:30:42;;;;;;;11.27;2.35;;;11.10;99.90;;;;;;6193248;23;20048;-92
2022/05/08 07:33:08;;;;;;;10.43;2.40;;;11.10;99.90;;;;;;6184141;23;20017;-88
2022/05/08 07:38:21;;;;;;;;;;;11.10;99.90;;;;;;6185119;23;20021;-88
2022/05/08 07:40:48;;;;;;;11.43;2.80;;;10.90;99.90;;;;;;6157239;23;20321;-88
2022/05/08 07:43:15;;;;;;;11.38;2.50;;;11.00;99.90;;;;;;6183813;23;20017;-88
2022/05/08 07:45:42;;;;;;;14.25;2.95;;;11.10;99.90;;;;;;6186087;23;20019;-88
2022/05/08 07:48:08;;;;;;;9.43;2.53;;;11.10;99.90;;;;;;6186345;23;20017;-88
2022/05/08 07:50:34;;;;;;;12.52;2.70;;;11.10;99.90;;;;;;6158967;23;20052;-88
2022/05/08 07:52:59;;;;;;;10.32;2.85;;;11.20;99.90;;;;;;6159338;23;20024;-88
2022/05/08 07:55:25;;;;;;;11.77;2.70;;;11.10;99.90;;;;;;6159955;23;20013;-88
2022/05/08 07:57:50;;;;;;;13.73;2.88;;;11.00;99.90;;;;;;6184935;23;20021;-89
2022/05/08 08:00:16;;;;;;;11.88;2.47;;;10.90;99.90;;;;;;6159845;23;20017;-90
2022/05/08 08:02:42;;;;;;;10.35;2.55;;;10.80;99.90;;;;;;6159282;23;20028;-89
2022/05/08 08:05:08;;;;;;;10.55;2.65;;;10.80;99.90;;;;;;6185531;23;20023;-90
2022/05/08 08:07:33;;;;;;;9.77;2.65;;;10.80;99.90;;;;;;6161689;23;20024;-93
2022/05/08 08:09:59;;;;;;;11.80;2.60;;;10.80;99.90;;;;;;6161527;23;20099;-94
2022/05/08 08:12:25;;;;;;;10.43;2.67;;;10.90;99.90;;;;;;6164306;23;20045;-92
2022/05/08 08:14:50;;;;;;;11.48;2.65;;;11.10;99.90;;;;;;6166913;23;20013;-92
2022/05/08 08:17:16;;;;;;;11.73;2.90;;;11.30;99.90;;;;;;6163868;23;20073;-95
2022/05/08 08:19:42;;;;;;;10.90;2.63;;;12.00;99.90;;;;;;6167313;23;20433;-94
2022/05/08 08:22:11;;;;;;;11.48;2.60;;;11.60;99.90;;;;;;6164101;23;20052;-95
2022/05/08 08:24:43;;;;;;;10.43;2.60;;;12.10;99.90;;;;;;6193433;23;20074;-95
2022/05/08 08:27:16;;;;;;;10.23;2.50;;;12.00;99.90;;;;;;6193868;23;20028;-96
2022/05/08 08:29:59;;;;;;;11.57;2.90;;;13.00;99.90;;;;;;6164500;23;20496;-93
2022/05/08 08:32:39;;;;;;;11.40;2.70;;;12.00;99.90;;;;;;6162051;23;20025;-96
2022/05/08 08:35:16;;;;;;;11.23;2.95;;;12.00;99.90;;;;;;6172842;23;20080;-91
2022/05/08 08:37:42;;;;;;;10.00;2.58;;;12.10;99.90;;;;;;6159672;23;20071;-87
2022/05/08 08:40:17;;;;;;;11.88;2.40;;;12.30;99.90;;;;;;6184820;23;20016;-89
2022/05/08 08:42:59;;;;;;;11.15;2.97;;;12.40;99.90;;;;;;6159332;23;20083;-88
2022/05/08 08:48:50;;;;;;;13.32;2.95;;;12.30;99.90;;;;;;6158593;23;20047;-90
2022/05/08 08:51:28;;;;;;;11.48;2.60;;;12.00;99.90;;;;;;6159456;23;20021;-90
2022/05/08 08:54:18;;;;;;;8.52;2.47;;;12.50;99.90;;;;;;6156818;23;20374;-88
2022/05/08 08:57:03;;;;;;;10.90;2.40;;;12.80;99.90;;;;;;6158719;23;20024;-89
2022/05/08 08:59:43;;;;;;;11.48;2.70;;;13.10;99.90;;;;;;6159294;23;20056;-89
2022/05/08 09:02:28;;;;;;;11.82;2.80;;;13.40;99.90;;;;;;6184416;23;20481;-87
2022/05/08 09:05:09;;;;;;;10.63;2.72;;;13.90;99.90;;;;;;6158766;23;20021;-88
2022/05/08 09:07:36;;;;;;;12.30;2.67;;;14.30;99.90;;;;;;6183955;23;20017;-87
2022/05/08 09:10:11;;;;;;;11.98;2.97;;;13.80;99.90;;;;;;6168691;23;20096;-88
2022/05/08 09:12:45;;;;;;;10.10;2.72;;;13.80;99.90;;;;;;6159261;23;20666;-89
2022/05/08 09:15:37;;;;;;;9.82;2.45;;;13.90;99.90;;;;;;6158800;23;20067;-87
2022/05/08 09:18:12;;;;;;;11.02;2.72;;;14.00;99.90;;;;;;6185517;23;20013;-85
2022/05/08 09:20:51;;;;;;;13.02;2.67;;;13.90;99.90;;;;;;6159381;23;20048;-85
2022/05/08 09:23:21;;;;;;;11.75;2.63;;;14.30;99.90;;;;;;6159144;23;20093;-89
2022/05/08 09:26:08;;;;;;;10.07;2.78;;;14.80;99.90;;;;;;6160680;23;20103;-90
2022/05/08 09:28:42;;;;;;;10.07;2.80;;;14.50;99.90;;;;;;6162754;23;20079;-89
2022/05/08 09:31:21;;;;;;;11.25;2.63;;;14.80;99.90;;;;;;6164660;23;20055;-90
2022/05/08 09:34:02;;;;;;;11.07;2.90;;;14.80;99.90;;;;;;6182645;23;20095;-89
2022/05/08 09:36:36;;;;;;;12.55;2.50;;;14.90;99.90;;;;;;6185476;23;20071;-89
2022/05/08 09:39:11;;;;;;;12.90;2.60;;;14.80;99.90;;;;;;6189696;23;20019;-89
2022/05/08 09:41:53;;;;;;;11.90;2.70;;;14.80;99.90;;;;;;6184092;23;20499;-88
2022/05/08 09:44:30;;;;;;;12.27;3.22;;;14.90;99.90;;;;;;6157914;23;20024;-89
2022/05/08 09:47:00;;;;;;;13.07;2.80;;;14.90;99.90;;;;;;6158774;23;20028;-88
2022/05/08 09:49:26;;;;;;;11.70;2.83;;;15.30;99.90;;;;;;6157848;23;20025;-88
2022/05/08 09:51:59;;;;;;;10.10;3.00;;;15.30;99.90;;;;;;6158350;23;20017;-89
2022/05/08 09:54:38;;;;;;;12.90;2.92;;;15.90;99.90;;;;;;6158696;23;20017;-89
2022/05/08 09:57:06;;;;;;;10.68;2.58;;;16.10;99.90;;;;;;6157490;23;20021;-88
2022/05/08 09:59:44;;;;;;;11.73;2.80;;;15.70;99.90;;;;;;6184946;23;20511;-89
2022/05/08 10:02:12;;;;;;;11.43;2.97;;;15.80;99.90;;;;;;6183315;23;20028;-89
2022/05/08 10:04:38;;;;;;;11.27;2.85;;;15.80;99.90;;;;;;6156121;23;20009;-88
2022/05/08 10:07:20;;;;;;;10.40;2.53;;;15.50;99.90;;;;;;6157271;23;20083;-89
2022/05/08 10:15:56;;;;;;;9.77;2.40;;;15.20;98.90;;;;;;6183474;23;20021;-88
2022/05/08 10:18:28;;;;;;;10.48;2.50;;;16.00;99.90;;;;;;6155916;23;20024;-88
2022/05/08 10:21:03;;;;;;;13.10;2.65;;;16.10;99.90;;;;;;6183554;23;20024;-88
2022/05/08 10:23:35;;;;;;;9.82;2.40;;;16.30;99.90;;;;;;6156868;23;20287;-88
2022/05/08 10:26:15;;;;;;;9.40;2.40;;;16.50;99.90;;;;;;6154185;23;20020;-88
2022/05/08 10:29:11;;;;;;;9.13;2.38;;;16.70;98.00;;;;;;6183783;23;20348;-90
2022/05/08 10:31:54;;;;;;;11.85;2.78;;;16.70;97.00;;;;;;6156882;23;20021;-91
2022/05/08 10:34:34;;;;;;;10.45;2.72;;;17.30;97.80;;;;;;6157712;23;20020;-91
2022/05/08 10:37:29;;;;;;;8.75;2.30;;;16.80;99.80;;;;;;6162517;23;20021;-89
2022/05/08 10:39:58;;;;;;;10.65;2.42;;;17.00;98.30;;;;;;6133292;23;20017;-88
2022/05/08 10:42:42;;;;;;;9.80;2.28;;;16.90;98.30;;;;;;6189100;23;20100;-91
2022/05/08 10:45:32;;;;;;;9.02;2.20;;;16.80;95.90;;;;;;6158709;23;20021;-89
2022/05/08 10:48:26;;;;;;;9.93;2.38;;;16.90;96.00;;;;;;6183527;23;20402;-93
2022/05/08 10:50:54;;;;;;;8.23;2.20;;;17.70;96.70;;;;;;6158542;23;20024;-94
2022/05/08 10:53:26;;;;;;;9.32;2.30;;;17.70;96.80;;;;;;6191872;23;20024;-93
2022/05/08 10:55:58;;;;;;;8.60;2.30;;;17.30;96.00;;;;;;6215187;23;20027;-93
2022/05/08 10:58:24;;;;;;;10.57;2.88;;;17.20;95.80;;;;;;6215645;23;20063;-95
2022/05/08 11:00:55;;;;;;;11.55;2.60;;;17.30;95.80;;;;;;6214663;23;20089;-90
2022/05/08 11:03:22;;;;;;;9.85;2.55;;;17.40;95.50;;;;;;6215091;23;20017;-90
2022/05/08 11:05:48;;;;;;;11.10;2.50;;;17.30;95.40;;;;;;6213162;23;20445;-91
2022/05/08 11:08:29;;;;;;;9.88;2.67;;;17.40;95.30;;;;;;6214372;23;20009;-85
2022/05/08 11:11:09;;;;;;;9.40;2.58;;;17.50;95.00;;;;;;6212706;23;20017;-86
2022/05/08 11:13:41;;;;;;;12.73;2.72;;;17.50;93.80;;;;;;6213029;23;20016;-84
2022/05/08 11:16:07;;;;;;;9.20;2.55;;;17.60;94.20;;;;;;6212127;23;20016;-84
2022/05/08 11:18:33;;;;;;;10.50;2.53;;;17.80;94.90;;;;;;6215866;23;20059;-86
2022/05/08 11:21:00;;;;;;;10.85;2.53;;;18.10;95.10;;;;;;6214011;23;20025;-87
2022/05/08 11:23:27;;;;;;;13.20;2.63;;;18.20;94.10;;;;;;6215573;23;20013;-86
2022/05/08 11:25:58;;;;;;;11.25;2.65;;;18.20;93.40;;;;;;6215339;23;20410;-86
2022/05/08 11:28:25;;;;;;;12.52;3.15;;;18.30;93.80;;;;;;6215699;23;20460;-85
2022/05/08 11:30:52;;;;;;;11.95;2.90;;;18.40;93.10;;;;;;6214900;23;20345;-85
2022/05/08 11:36:06;;;;;;;9.52;2.40;;;18.50;92.90;;;;;;6214464;23;20017;-84
2022/05/08 11:38:50;;;;;;;11.65;2.50;;;18.30;91.80;;;;;;6214788;23;20050;-86
2022/05/08 11:41:28;;;;;;;10.63;2.53;;;18.40;91.30;;;;;;6216348;23;20042;-81
2022/05/08 11:43:55;;;;;;;10.57;2.40;;;18.50;91.10;;;;;;6215363;23;20446;-79
2022/05/08 11:46:39;;;;;;;10.65;2.70;;;18.50;92.20;;;;;;6216577;23;20103;-81
2022/05/08 11:49:19;;;;;;;8.80;2.60;;;18.70;91.80;;;;;;6213671;23;20380;-81
2022/05/08 11:51:48;;;;;;;9.45;2.50;;;18.70;91.60;;;;;;6217121;23;20441;-82
2022/05/08 11:54:24;;;;;;;10.95;2.92;;;18.70;90.90;;;;;;6215942;23;20031;-82
2022/05/08 11:57:08;;;;;;;11.15;2.60;;;18.50;91.10;;;;;;6214827;23;20589;-84
2022/05/08 11:59:35;;;;;;;8.10;2.33;;;18.40;90.80;;;;;;6214469;23;20021;-82
2022/05/08 12:02:01;;;;;;;11.55;2.80;;;18.30;90.20;;;;;;6214149;23;20455;-84
2022/05/08 12:04:28;;;;;;;12.60;3.35;;;18.30;90.30;;;;;;6213747;23;20016;-86
2022/05/08 12:06:59;;;;;;;13.85;2.78;;;18.50;89.90;;;;;;6214352;23;20056;-86
2022/05/08 12:09:25;;;;;;;11.20;2.65;;;18.70;90.40;;;;;;6214879;23;20044;-85
2022/05/08 12:11:51;;;;;;;9.70;2.47;;;19.10;90.40;;;;;;6215260;23;20012;-85
2022/05/08 12:14:29;;;;;;;11.05;2.80;;;19.20;90.40;;;;;;6214774;23;20464;-84
2022/05/08 12:17:01;;;;;;;11.45;3.38;;;19.40;90.30;;;;;;6214257;23;20009;-85
2022/05/08 12:19:27;;;;;;;8.93;2.55;;;19.30;90.10;;;;;;6213031;23;20471;-84
2022/05/08 12:21:54;;;;;;;9.45;2.60;;;19.20;90.00;;;;;;6188924;23;20083;-84
2022/05/08 12:24:21;;;;;;;10.38;2.78;;;18.90;88.90;;;;;;6213736;23;20080;-84
2022/05/08 12:26:47;;;;;;;9.70;2.55;;;19.00;89.00;;;;;;6215722;23;20027;-84
2022/05/08 12:29:20;;;;;;;12.45;3.00;;;19.30;88.90;;;;;;6216515;23;20017;-83
2022/05/08 12:31:49;;;;;;;11.65;3.00;;;19.30;88.50;;;;;;6215038;23;20020;-84
2022/05/08 12:34:19;;;;;;;12.13;3.38;;;19.30;88.00;;;;;;6214310;23;20044;-83
2022/05/08 12:36:45;;;;;;;10.13;2.60;;;19.10;87.30;;;;;;6215945;23;20020;-85
2022/05/08 12:39:11;;;;;;;10.80;2.70;;;19.00;87.00;;;;;;6215097;23;20499;-83
2022/05/08 12:41:37;;;;;;;10.88;2.80;;;19.10;86.80;;;;;;6215989;23;20012;-83
2022/05/08 12:44:03;;;;;;;13.82;3.17;;;19.10;86.50;;;;;;6213478;23;20024;-86
2022/05/08 12:46:34;;;;;;;10.38;2.70;;;19.00;86.50;;;;;;6213154;23;20030;-89
2022/05/08 12:49:10;;;;;;;10.75;2.80;;;19.30;87.30;;;;;;6215911;23;20027;-86
2022/05/08 12:51:45;;;;;;;13.15;3.00;;;20.20;87.80;;;;;;6215550;23;20440;-88
2022/05/08 12:54:11;;;;;;;10.32;2.35;;;19.40;85.90;;;;;;6210184;23;20025;-87
2022/05/08 12:57:04;;;;;;;10.50;2.55;;;19.40;86.30;;;;;;6212862;23;20050;-89
2022/05/08 12:59:58;;;;;;;;;;;;;;;;;;;;;
2022/05/08 13:02:38;;;;;;;10.38;2.92;;;19.30;86.80;;;;;;6211887;23;20019;-86
2022/05/08 13:05:16;;;;;;;10.68;2.78;;;19.10;86.30;;;;;;6212434;23;20025;-86
2022/05/08 13:08:00;;;;;;;10.80;3.08;;;19.20;85.70;;;;;;6213034;23;20012;-87
2022/05/08 13:10:35;;;;;;;19.30;2.78;;;19.20;85.90;;;;;;6214756;23;20016;-84
2022/05/08 13:13:01;;;;;;;10.35;2.70;;;19.40;86.70;;;;;;6214473;23;20017;-85
2022/05/08 13:15:30;;;;;;;10.15;2.60;;;19.50;86.40;;;;;;6212188;23;20444;-86
2022/05/08 13:17:59;;;;;;;11.50;2.65;;;19.80;86.20;;;;;;6212529;23;20063;-88